Time;durP1;ratioP1;P1;durP2;ratioP2;P2;SDS_P1;SDS_P2;PMS_P1;PMS_P2;Temp;Humidity;BMP_temperature;BMP_pressure;BME280_temperature;BME280_humidity;BME280_pressure;Samples;Min_cycle;Max_cycle;Signal;HPM_P1;HPM_P2
2023/02/20 00:00:28;;;;;;;8.23;7.43;;;7.90;94.60;;;7.74;82.52;98870.81;5046223;28;20557;-72
2023/02/20 00:02:56;;;;;;;8.00;7.20;;;7.90;94.80;;;7.60;82.92;98846.31;5045246;28;20927;-72
2023/02/20 00:05:23;;;;;;;10.90;7.63;;;7.90;95.00;;;7.74;82.89;98862.72;5041690;28;20464;-72
2023/02/20 00:07:51;;;;;;;12.30;7.67;;;7.90;94.80;;;7.79;82.25;98865.72;5057088;28;20465;-72
2023/02/20 00:10:18;;;;;;;11.60;7.90;;;8.00;94.70;;;7.67;82.85;98867.16;5053463;28;20463;-73
2023/02/20 00:12:46;;;;;;;13.03;7.00;;;7.90;94.60;;;7.83;82.07;98867.06;5044666;28;20451;-72
2023/02/20 00:15:18;;;;;;;9.43;8.00;;;8.00;94.90;;;7.86;82.73;98865.84;5048958;28;20457;-73
2023/02/20 00:17:47;;;;;;;8.20;7.30;;;8.00;95.10;;;7.63;82.75;98867.47;5046292;28;20868;-72
2023/02/20 00:20:15;;;;;;;9.10;7.57;;;7.90;95.00;;;7.65;83.23;98862.75;5044466;28;20920;-72
2023/02/20 00:22:43;;;;;;;9.47;6.87;;;7.90;94.90;;;7.76;82.70;98872.31;5041410;28;20454;-73
2023/02/20 00:25:13;;;;;;;10.60;8.07;;;7.90;95.40;;;7.77;82.74;98873.97;5043868;28;20526;-72
2023/02/20 00:27:42;;;;;;;8.40;7.50;;;7.90;95.50;;;7.63;82.99;98855.91;5047893;28;20552;-71
2023/02/20 00:30:17;;;;;;;12.50;8.90;;;7.90;95.30;;;7.77;82.92;98875.81;5061616;28;20446;-72
2023/02/20 00:32:44;;;;;;;14.50;9.07;;;8.00;95.40;;;7.80;82.88;98872.78;5064020;28;20444;-71
2023/02/20 00:35:12;;;;;;;14.77;8.40;;;8.00;95.30;;;7.72;82.76;98870.16;5072880;28;20477;-73
2023/02/20 00:37:39;;;;;;;14.83;9.50;;;7.90;95.60;;;7.40;82.95;98823.56;5066204;28;20438;-73
2023/02/20 00:40:08;;;;;;;10.23;8.47;;;7.90;95.60;;;7.83;83.12;98880.50;5050253;28;20915;-72
2023/02/20 00:42:36;;;;;;;11.63;9.30;;;8.00;95.90;;;7.83;83.15;98875.13;5048864;28;20505;-72
2023/02/20 00:45:03;;;;;;;11.90;8.50;;;7.90;95.90;;;7.80;83.53;98889.75;5049289;28;20454;-72
2023/02/20 00:47:32;;;;;;;9.43;8.40;;;7.90;95.60;;;7.76;83.58;98866.94;5050335;28;20443;-71
2023/02/20 00:49:59;;;;;;;12.10;8.77;;;7.90;96.20;;;7.75;82.93;98854.50;5046213;28;20451;-72
2023/02/20 00:52:26;;;;;;;13.70;8.10;;;7.90;96.00;;;7.76;83.23;98871.47;5041360;28;20451;-71
2023/02/20 00:54:54;;;;;;;11.63;9.27;;;7.90;95.90;;;7.83;83.33;98867.06;5045420;28;20460;-70
2023/02/20 00:57:21;;;;;;;10.27;9.03;;;7.90;96.40;;;7.80;83.08;98878.16;5045752;28;20454;-71
2023/02/20 00:59:49;;;;;;;10.77;9.63;;;7.90;96.20;;;7.46;84.19;98849.75;5044032;28;20484;-73
2023/02/20 01:02:16;;;;;;;10.27;8.70;;;7.80;96.60;;;7.64;83.36;98850.31;5036016;28;20441;-71
2023/02/20 01:04:45;;;;;;;10.63;9.50;;;7.90;96.20;;;7.82;82.95;98865.38;5036135;28;20452;-71
2023/02/20 01:07:12;;;;;;;14.37;8.80;;;7.90;95.90;;;7.75;83.49;98864.41;5060125;28;20835;-72
2023/02/20 01:09:39;;;;;;;11.80;8.90;;;7.90;95.80;;;7.86;83.23;98866.69;5064316;28;20429;-72
2023/02/20 01:12:06;;;;;;;11.80;8.03;;;7.90;95.90;;;7.79;83.21;98871.09;5051123;28;20450;-72
2023/02/20 01:14:34;;;;;;;19.03;9.13;;;7.90;95.50;;;7.71;83.25;98855.03;5056749;28;20484;-70
2023/02/20 01:17:01;;;;;;;10.47;9.37;;;7.90;95.60;;;7.83;82.95;98869.75;5046144;28;20474;-72
2023/02/20 01:19:29;;;;;;;10.77;8.60;;;7.90;95.10;;;7.70;83.32;98856.03;5064842;28;20512;-72
2023/02/20 01:21:59;;;;;;;12.70;9.17;;;7.90;95.40;;;7.75;83.01;98859.03;5055685;28;20448;-71
2023/02/20 01:24:26;;;;;;;14.67;9.77;;;8.00;95.00;;;7.80;82.84;98868.25;5034898;28;20456;-70
2023/02/20 01:26:53;;;;;;;12.93;9.23;;;7.90;95.20;;;7.71;82.94;98868.47;5051838;28;20449;-70
2023/02/20 01:29:20;;;;;;;13.50;9.30;;;7.90;95.30;;;7.81;82.75;98885.25;5043328;28;20446;-69
2023/02/20 01:31:49;;;;;;;11.30;8.60;;;7.90;95.30;;;7.84;82.26;98870.56;5066935;28;20435;-72
2023/02/20 01:34:17;;;;;;;14.90;9.30;;;8.00;94.70;;;7.70;82.71;98875.69;5049454;28;20445;-71
2023/02/20 01:36:49;;;;;;;12.40;9.70;;;7.90;94.50;;;7.65;83.01;98864.63;5048707;28;20496;-71
2023/02/20 01:39:21;;;;;;;14.83;9.67;;;7.80;95.10;;;7.67;82.86;98867.16;5043957;28;20469;-69
2023/02/20 01:41:52;;;;;;;13.00;9.20;;;7.80;95.50;;;7.47;83.11;98857.66;5046449;28;20971;-72
2023/02/20 01:44:22;;;;;;;12.03;9.20;;;7.80;94.90;;;7.60;83.21;98873.22;5049360;28;20462;-70
2023/02/20 01:46:53;;;;;;;10.70;8.63;;;7.70;95.40;;;7.58;82.83;98874.41;5041078;28;20539;-71
2023/02/20 01:49:32;;;;;;;12.60;9.43;;;7.70;95.40;;;7.63;82.48;98870.16;5047765;28;20456;-72
2023/02/20 01:52:07;;;;;;;13.30;9.60;;;7.70;95.50;;;7.57;82.93;98870.88;5046660;28;20464;-70
2023/02/20 01:54:39;;;;;;;11.57;8.80;;;7.60;95.90;;;7.52;83.02;98857.13;5046970;28;20969;-72
2023/02/20 01:57:13;;;;;;;9.70;8.67;;;7.60;95.80;;;7.32;83.11;98856.72;5045120;28;20455;-71
2023/02/20 01:59:41;;;;;;;13.07;9.10;;;7.50;95.30;;;7.41;82.62;98846.75;5045870;28;20469;-70
2023/02/20 02:02:10;;;;;;;10.70;8.23;;;7.60;95.30;;;7.40;83.16;98853.16;5048525;28;20451;-71
2023/02/20 02:04:40;;;;;;;11.30;8.90;;;7.50;95.50;;;7.35;83.25;98841.06;5040725;28;20460;-71
2023/02/20 02:07:08;;;;;;;12.30;8.90;;;7.50;95.80;;;7.22;83.63;98849.66;5045857;28;20458;-72
2023/02/20 02:09:44;;;;;;;14.23;9.37;;;7.50;95.80;;;7.25;82.89;98836.88;5046881;28;20454;-71
2023/02/20 02:12:12;;;;;;;12.60;9.37;;;7.50;95.10;;;7.38;82.77;98850.63;5059778;28;20835;-71
2023/02/20 02:14:39;;;;;;;14.33;10.37;;;7.50;95.40;;;7.44;82.45;98838.34;5046455;28;20459;-72
2023/02/20 02:17:35;;;;;;;14.40;10.40;;;7.60;95.10;;;7.39;82.99;98838.03;5049253;28;20445;-72
2023/02/20 02:20:41;;;;;;;12.33;9.70;;;7.60;95.10;;;7.48;82.26;98823.53;5039574;28;20483;-72
2023/02/20 02:24:05;;;;;;;10.30;8.87;;;7.60;95.20;;;7.43;82.44;98840.19;5043845;28;20446;-70
2023/02/20 02:27:13;;;;;;;13.20;9.80;;;7.60;95.00;;;7.49;82.03;98850.25;5062344;28;20452;-71
2023/02/20 02:30:04;;;;;;;15.20;9.77;;;7.70;94.60;;;7.37;82.75;98843.56;5048724;28;20462;-71
2023/02/20 02:33:15;;;;;;;13.83;8.40;;;7.60;95.10;;;7.48;82.46;98853.94;5053639;28;20444;-71
2023/02/20 02:36:37;;;;;;;13.80;10.03;;;7.60;94.40;;;7.44;82.19;98830.25;5047074;28;20942;-72
2023/02/20 02:39:15;;;;;;;15.33;10.30;;;7.70;94.60;;;7.36;82.55;98841.91;5065767;28;20442;-70
2023/02/20 02:41:53;;;;;;;12.23;10.10;;;7.60;94.60;;;7.42;82.46;98835.00;5042129;28;20473;-71
2023/02/20 02:44:29;;;;;;;14.30;10.03;;;7.60;94.40;;;7.36;82.72;98836.53;5019555;28;20946;-72
2023/02/20 02:47:03;;;;;;;13.90;9.70;;;7.60;95.10;;;7.33;82.99;98829.63;5059338;28;21174;-71
2023/02/20 02:49:38;;;;;;;14.60;10.30;;;7.60;94.70;;;7.30;83.13;98824.59;5046280;28;20508;-71
2023/02/20 02:52:08;;;;;;;15.57;10.83;;;7.50;94.90;;;7.22;83.08;98797.78;5039342;28;20445;-71
2023/02/20 02:54:36;;;;;;;17.63;11.53;;;7.60;95.00;;;7.27;82.69;98798.09;5040807;28;20467;-71
2023/02/20 02:57:23;;;;;;;13.97;11.43;;;7.50;94.80;;;7.37;82.87;98805.94;5045810;28;20801;-71
2023/02/20 02:59:57;;;;;;;17.27;11.00;;;7.50;94.90;;;7.16;83.37;98812.75;5037175;28;20505;-71
2023/02/20 03:02:28;;;;;;;16.27;10.80;;;7.50;94.70;;;7.22;82.76;98812.03;5039582;28;20557;-70
2023/02/20 03:04:57;;;;;;;14.57;11.40;;;7.50;94.90;;;7.28;82.80;98818.56;5056739;28;20454;-72
2023/02/20 03:07:28;;;;;;;13.13;10.30;;;7.50;94.60;;;7.23;82.63;98818.28;5047890;28;20982;-71
2023/02/20 03:10:00;;;;;;;15.60;11.43;;;7.50;94.20;;;7.14;83.00;98830.91;5050036;28;20445;-72
2023/02/20 03:12:29;;;;;;;12.63;10.90;;;7.40;94.60;;;7.20;82.63;98824.81;5048887;28;20442;-72
2023/02/20 03:17:53;;;;;;;12.63;11.17;;;7.30;95.10;;;7.12;82.67;98816.78;5063751;28;20458;-71
2023/02/20 03:20:23;;;;;;;16.70;12.17;;;7.30;94.60;;;7.03;83.12;98817.84;5049130;28;20477;-72
2023/02/20 03:22:54;;;;;;;14.50;11.67;;;7.30;94.90;;;6.92;83.31;98822.56;5069400;28;20816;-71
2023/02/20 03:25:28;;;;;;;13.33;11.93;;;7.20;95.20;;;7.00;83.33;98828.94;5046247;28;20475;-72
2023/02/20 03:27:58;;;;;;;17.83;12.43;;;7.20;95.30;;;6.96;83.60;98839.19;5049136;28;21052;-69
2023/02/20 03:30:35;;;;;;;18.20;12.00;;;7.20;95.30;;;7.04;83.25;98841.81;5063035;28;20453;-72
2023/02/20 03:44:17;;;;;;;16.77;13.50;;;7.20;95.50;;;6.91;83.38;98817.38;5037385;28;20437;-69
2023/02/20 03:46:47;;;;;;;15.53;13.60;;;7.20;95.40;;;6.92;83.64;98840.53;5045878;28;20450;-71
2023/02/20 03:49:20;;;;;;;15.03;12.50;;;7.20;95.40;;;6.90;83.95;98839.84;5042618;28;20519;-72
2023/02/20 03:51:48;;;;;;;16.63;13.53;;;7.20;95.60;;;6.87;83.70;98841.03;5044174;28;20462;-72
2023/02/20 03:54:18;;;;;;;16.17;12.87;;;7.10;95.50;;;6.80;83.83;98821.25;5047070;28;20463;-72
2023/02/20 03:56:51;;;;;;;16.57;12.40;;;7.00;95.80;;;6.89;83.75;98822.91;5042163;28;20542;-73
2023/02/20 03:59:23;;;;;;;15.13;12.33;;;7.00;96.90;;;6.66;84.24;98817.41;5058509;28;20459;-71
2023/02/20 04:01:56;;;;;;;20.37;13.27;;;7.00;96.40;;;6.79;83.93;98822.25;5062004;28;20546;-72
2023/02/20 04:04:29;;;;;;;21.27;13.83;;;7.00;96.40;;;6.71;84.13;98815.03;5043916;28;21017;-71
2023/02/20 04:06:58;;;;;;;19.67;13.87;;;7.00;96.70;;;6.88;83.91;98829.28;5042521;28;20523;-71
2023/02/20 04:09:32;;;;;;;18.60;13.10;;;7.10;96.40;;;6.92;83.90;98827.09;5047416;28;20538;-72
2023/02/20 04:12:06;;;;;;;18.83;14.30;;;7.10;96.00;;;6.80;83.79;98822.09;5038349;28;20470;-73
2023/02/20 04:14:34;;;;;;;18.27;14.50;;;7.10;95.30;;;7.03;83.26;98842.00;5042912;28;20463;-71
2023/02/20 04:17:08;;;;;;;18.83;14.67;;;7.20;95.70;;;7.01;82.98;98836.81;5045346;28;20450;-73
2023/02/20 04:19:38;;;;;;;18.90;14.80;;;7.10;95.20;;;6.98;82.85;98837.16;5046844;28;20503;-72
2023/02/20 04:22:13;;;;;;;18.53;13.80;;;7.20;95.10;;;6.97;82.99;98840.84;5039635;28;20445;-72
2023/02/20 04:24:48;;;;;;;19.90;14.60;;;7.30;94.30;;;7.07;82.78;98832.59;5047264;28;21120;-72
2023/02/20 04:27:15;;;;;;;19.40;15.30;;;7.20;94.40;;;7.12;82.17;98838.28;5050463;28;20501;-73
2023/02/20 04:29:44;;;;;;;19.53;14.73;;;7.20;94.70;;;7.12;82.61;98837.44;5049049;28;21027;-72
2023/02/20 04:32:12;;;;;;;21.27;15.53;;;7.20;94.80;;;7.15;81.76;98823.66;5047977;28;20443;-72
2023/02/20 04:34:39;;;;;;;23.17;15.10;;;7.30;94.40;;;7.12;81.81;98821.31;5044719;28;20924;-73
2023/02/20 04:37:10;;;;;;;18.63;14.37;;;7.30;94.00;;;7.14;82.02;98813.94;5048861;28;20454;-70
2023/02/20 04:39:37;;;;;;;19.40;13.87;;;7.30;93.60;;;6.99;82.32;98801.22;5029746;28;20454;-71
2023/02/20 04:42:07;;;;;;;23.10;15.00;;;7.30;93.90;;;7.01;81.88;98793.81;5060458;28;20942;-72
2023/02/20 04:44:35;;;;;;;20.00;16.17;;;7.30;93.90;;;7.03;82.43;98821.34;5037678;28;20562;-72
2023/02/20 04:47:07;;;;;;;14.90;12.87;;;7.30;93.70;;;7.01;82.13;98825.22;5050123;28;20451;-70
2023/02/20 04:49:34;;;;;;;16.60;13.13;;;7.30;93.80;;;7.05;81.79;98827.41;5063599;28;20942;-71
2023/02/20 04:52:02;;;;;;;17.80;13.53;;;7.30;93.50;;;6.88;82.21;98821.22;5043140;28;21057;-70
2023/02/20 04:54:31;;;;;;;18.07;11.97;;;7.20;93.80;;;6.98;81.78;98826.41;5049503;28;20482;-70
2023/02/20 04:56:58;;;;;;;15.97;12.47;;;7.20;93.30;;;6.93;81.74;98826.09;5049319;28;20470;-70
2023/02/20 04:59:27;;;;;;;15.80;11.63;;;7.20;92.90;;;7.08;80.67;98836.94;5044712;28;20450;-69
2023/02/20 05:01:55;;;;;;;18.40;13.90;;;7.30;92.80;;;7.15;80.31;98840.63;5044760;28;20918;-70
2023/02/20 05:04:22;;;;;;;15.43;12.07;;;7.30;92.40;;;7.04;79.72;98831.06;5049150;28;20526;-71
2023/02/20 05:06:52;;;;;;;17.50;11.33;;;7.30;91.20;;;7.05;79.09;98840.84;5041772;28;20457;-70
2023/02/20 05:09:20;;;;;;;16.90;11.70;;;7.30;90.70;;;6.97;78.99;98845.38;5044614;28;20465;-71
2023/02/20 05:11:47;;;;;;;15.80;10.90;;;7.30;90.90;;;7.02;78.86;98841.16;5046862;28;20537;-71
2023/02/20 05:14:14;;;;;;;13.30;10.40;;;7.30;90.70;;;6.63;78.45;98778.31;5042025;28;20460;-72
2023/02/20 05:16:44;;;;;;;14.97;12.20;;;7.30;90.60;;;7.06;78.21;98847.91;5051601;28;20919;-71
2023/02/20 05:19:13;;;;;;;11.73;10.27;;;7.30;90.50;;;7.07;78.48;98852.25;5047379;28;20533;-71
2023/02/20 05:24:28;;;;;;;12.97;11.13;;;7.20;90.30;;;7.05;78.52;98853.44;5050258;28;20434;-72
2023/02/20 05:26:56;;;;;;;12.47;11.27;;;7.30;90.40;;;6.91;78.67;98852.28;5053724;28;20451;-72
2023/02/20 05:29:23;;;;;;;16.77;10.77;;;7.20;90.60;;;7.05;78.62;98869.56;5050074;28;20461;-73
2023/02/20 05:31:52;;;;;;;13.37;10.33;;;7.20;91.00;;;7.02;77.83;98864.53;5050731;28;21265;-71
2023/02/20 05:34:20;;;;;;;11.77;10.00;;;7.30;90.20;;;6.96;78.20;98866.03;5066052;28;20540;-71
2023/02/20 05:36:47;;;;;;;15.13;11.97;;;7.30;90.10;;;6.87;78.81;98867.06;5066577;28;20461;-71
2023/02/20 05:39:14;;;;;;;12.30;10.00;;;7.10;90.50;;;6.92;78.42;98880.84;5055442;28;20443;-68
2023/02/20 05:41:41;;;;;;;13.20;10.43;;;7.10;90.70;;;6.72;78.39;98886.53;5059462;28;20469;-67
2023/02/20 05:44:09;;;;;;;14.70;11.07;;;7.10;90.30;;;6.65;79.02;98885.56;5048894;28;20446;-67
2023/02/20 05:46:40;;;;;;;12.07;9.97;;;7.00;90.60;;;6.65;79.12;98890.94;5062767;28;20475;-67
2023/02/20 05:49:10;;;;;;;15.37;10.17;;;6.90;90.70;;;6.64;79.18;98891.94;5038059;28;20545;-67
2023/02/20 05:51:39;;;;;;;14.50;11.83;;;6.90;90.80;;;6.56;78.54;98875.81;5045358;28;20934;-68
2023/02/20 05:54:06;;;;;;;15.47;11.27;;;6.90;90.60;;;6.69;78.60;98903.00;5054959;28;21030;-66
2023/02/20 05:56:34;;;;;;;12.53;10.33;;;7.00;90.60;;;6.68;78.13;98906.69;5049351;28;20505;-66
2023/02/20 05:59:01;;;;;;;19.93;11.90;;;7.00;90.20;;;6.74;78.59;98906.00;5047239;28;20496;-67
2023/02/20 06:01:31;;;;;;;12.90;10.70;;;7.00;90.20;;;6.71;78.07;98909.03;5048525;28;20468;-67
2023/02/20 06:04:00;;;;;;;13.83;10.37;;;7.00;90.20;;;6.63;78.56;98911.75;5045908;28;20450;-67
2023/02/20 06:06:34;;;;;;;12.53;11.23;;;7.00;90.00;;;6.62;77.96;98886.72;5042254;28;20502;-67
2023/02/20 06:09:01;;;;;;;14.83;11.07;;;7.00;89.90;;;6.88;77.89;98900.97;5046326;28;20497;-67
2023/02/20 06:11:28;;;;;;;12.23;10.20;;;7.10;89.70;;;6.82;78.07;98889.06;5035779;28;20508;-69
2023/02/20 06:13:56;;;;;;;12.37;10.80;;;7.10;90.00;;;6.98;77.27;98884.69;5043417;28;20459;-69
2023/02/20 06:16:25;;;;;;;12.27;10.47;;;7.10;89.30;;;6.88;77.42;98896.44;5047146;28;20461;-70
2023/02/20 06:18:53;;;;;;;14.73;10.90;;;7.10;89.90;;;7.08;76.91;98888.00;5043676;28;20450;-70
2023/02/20 06:21:22;;;;;;;13.60;10.53;;;7.10;89.60;;;7.00;76.98;98888.88;5055617;28;22367;-70
2023/02/20 06:23:52;;;;;;;12.40;10.90;;;7.20;89.70;;;6.90;77.24;98875.63;5043933;28;20563;-70
2023/02/20 06:26:20;;;;;;;17.30;11.10;;;7.20;89.70;;;6.99;76.96;98892.56;5050309;28;20549;-69
2023/02/20 06:28:49;;;;;;;16.67;11.20;;;7.10;90.00;;;6.95;78.72;98904.66;5047567;28;20962;-78
2023/02/20 06:31:22;;;;;;;13.60;10.13;;;7.10;91.10;;;7.29;78.78;98886.63;5043992;28;20464;-69
2023/02/20 06:33:49;;;;;;;16.00;12.10;;;7.30;91.40;;;6.76;77.23;98791.22;5042787;28;21163;-68
2023/02/20 06:36:23;;;;;;;14.43;10.97;;;7.50;91.00;;;7.31;76.70;98901.56;5053564;28;20460;-70
2023/02/20 06:38:52;;;;;;;12.13;10.87;;;7.50;89.20;;;7.20;77.98;98899.22;5065221;28;20545;-70
2023/02/20 06:41:19;;;;;;;15.10;10.80;;;7.40;90.20;;;7.17;76.99;98884.31;5051173;28;20483;-70
2023/02/20 06:43:47;;;;;;;12.03;10.43;;;7.50;90.20;;;7.22;77.35;98902.59;5038981;28;20461;-72
2023/02/20 06:46:14;;;;;;;15.83;10.60;;;7.40;90.00;;;7.45;76.31;98912.59;5055128;28;20460;-72
2023/02/20 06:48:45;;;;;;;14.97;10.33;;;7.50;89.20;;;7.53;76.59;98909.91;5041830;28;20473;-70
2023/02/20 06:51:12;;;;;;;12.03;9.97;;;7.60;89.30;;;7.56;75.79;98911.38;5048288;28;20454;-70
2023/02/20 06:53:41;;;;;;;24.33;11.30;;;7.70;88.70;;;7.41;75.56;98912.09;5053751;28;20543;-71
2023/02/20 06:56:14;;;;;;;12.87;10.10;;;7.60;87.60;;;7.32;75.98;98907.78;5039272;28;20496;-70
2023/02/20 06:58:41;;;;;;;13.60;9.13;;;7.50;87.70;;;7.33;76.24;98896.03;5042403;28;20470;-71
2023/02/20 07:01:09;;;;;;;12.80;10.30;;;7.50;88.10;;;7.30;76.45;98896.38;5057242;28;20987;-71
2023/02/20 07:03:37;;;;;;;13.83;9.30;;;7.40;88.60;;;7.35;75.48;98908.28;5055979;28;20873;-70
2023/02/20 07:06:05;;;;;;;10.60;8.97;;;7.50;88.30;;;7.40;75.42;98898.84;5043518;28;20459;-70
2023/02/20 07:08:32;;;;;;;17.70;9.77;;;7.50;87.80;;;7.45;75.32;98909.91;5030722;28;20559;-71
2023/02/20 07:10:59;;;;;;;12.00;9.70;;;7.60;87.30;;;7.27;75.79;98905.59;5053719;28;20472;-71
2023/02/20 07:13:27;;;;;;;13.30;9.80;;;7.50;87.30;;;7.41;75.27;98912.09;5061017;28;20458;-71
2023/02/20 07:15:54;;;;;;;11.30;8.77;;;7.50;87.40;;;7.38;75.68;98901.69;5043568;28;20450;-71
2023/02/20 07:18:22;;;;;;;13.73;9.70;;;7.50;87.40;;;7.29;75.88;98898.19;5037200;28;20457;-72
2023/02/20 07:20:50;;;;;;;11.10;8.80;;;7.50;87.70;;;7.01;76.58;98895.91;5042504;28;20479;-72
2023/02/20 07:23:18;;;;;;;10.83;8.43;;;7.30;88.00;;;6.88;77.32;98893.75;5044799;28;21310;-72
2023/02/20 07:25:46;;;;;;;10.77;9.13;;;7.20;89.30;;;7.01;77.06;98874.41;5058053;28;21271;-71
2023/02/20 07:28:14;;;;;;;11.80;9.57;;;7.10;89.70;;;6.99;77.05;98879.13;5038246;28;20471;-71
2023/02/20 07:30:43;;;;;;;12.00;8.93;;;7.10;90.00;;;6.98;77.48;98874.78;5049739;28;20943;-71
2023/02/20 07:33:10;;;;;;;12.73;10.30;;;7.10;90.20;;;7.18;79.18;98879.75;5038205;28;20487;-80
2023/02/20 07:35:37;;;;;;;16.43;9.30;;;7.20;92.00;;;6.95;77.71;98862.50;5034328;28;20518;-69
2023/02/20 07:38:05;;;;;;;11.90;9.77;;;7.10;90.70;;;6.76;78.13;98839.56;5038775;28;20930;-70
2023/02/20 07:40:33;;;;;;;12.57;10.53;;;7.10;91.50;;;7.18;79.05;98877.06;5042405;28;20508;-70
2023/02/20 07:43:00;;;;;;;20.40;18.20;;;7.30;92.50;;;7.24;78.01;98879.06;5042324;28;20636;-72
2023/02/20 07:45:27;;;;;;;11.40;9.87;;;7.30;91.30;;;7.01;77.43;98895.91;5060055;28;20850;-70
2023/02/20 07:47:56;;;;;;;12.87;9.30;;;7.20;90.30;;;7.02;77.63;98897.59;5041787;28;20524;-70
2023/02/20 07:50:23;;;;;;;16.33;9.90;;;7.20;90.20;;;7.23;78.08;98893.53;5055447;28;20519;-70
2023/02/20 07:52:50;;;;;;;11.00;9.73;;;7.30;90.90;;;7.62;78.85;98898.09;5057391;28;20579;-70
2023/02/20 07:55:19;;;;;;;10.30;9.00;;;7.60;92.50;;;7.21;75.93;98890.19;5041319;28;20465;-72
2023/02/20 07:57:49;;;;;;;12.13;8.20;;;7.60;87.80;;;7.40;75.75;98893.47;5046847;28;20866;-70
2023/02/20 08:00:18;;;;;;;10.07;8.27;;;7.50;87.80;;;7.46;75.76;98887.41;5047896;28;22150;-70
2023/02/20 08:02:46;;;;;;;10.60;8.23;;;7.60;87.50;;;7.54;75.30;98876.63;5047389;28;20584;-70
2023/02/20 08:05:15;;;;;;;10.80;8.50;;;7.70;86.80;;;7.76;74.72;98863.38;5063980;28;21013;-71
2023/02/20 08:07:46;;;;;;;9.97;7.50;;;7.90;86.40;;;7.89;73.68;98850.19;5063099;28;20498;-72
2023/02/20 08:10:14;;;;;;;9.77;7.20;;;8.00;85.80;;;8.05;72.20;98884.25;5051060;28;20465;-71
2023/02/20 08:12:42;;;;;;;8.97;6.50;;;8.20;84.90;;;8.13;72.23;98871.75;5036758;28;20543;-70
2023/02/20 08:15:11;;;;;;;8.63;7.00;;;8.30;84.10;;;8.32;70.98;98870.44;5040904;28;20454;-70
2023/02/20 08:17:38;;;;;;;9.57;6.80;;;8.50;83.50;;;8.26;71.22;98855.00;5041844;28;21949;-69
2023/02/20 08:20:08;;;;;;;13.33;6.73;;;8.60;83.10;;;8.21;71.05;98855.56;5040667;28;20605;-71
2023/02/20 08:22:37;;;;;;;10.53;6.70;;;8.50;82.80;;;8.48;70.67;98878.38;5040882;28;20474;-70
2023/02/20 08:25:05;;;;;;;6.43;5.50;;;8.50;82.90;;;8.54;69.89;98867.94;5070624;28;20460;-70
2023/02/20 08:27:37;;;;;;;8.50;5.20;;;8.60;82.40;;;8.20;70.71;98878.94;5058330;28;20494;-70
2023/02/20 08:30:05;;;;;;;10.00;5.77;;;8.60;82.00;;;8.12;70.82;98889.78;5038501;28;20471;-71
2023/02/20 08:32:32;;;;;;;7.50;5.70;;;8.40;82.30;;;8.11;71.18;98882.69;5066135;28;20450;-71
2023/02/20 08:34:59;;;;;;;6.67;5.70;;;8.30;82.70;;;7.68;71.26;98804.28;5040737;28;20473;-68
2023/02/20 08:37:27;;;;;;;6.43;5.50;;;8.20;82.80;;;7.92;71.52;98870.53;5052962;28;20489;-79
2023/02/20 08:39:56;;;;;;;9.43;5.53;;;8.10;83.00;;;7.82;71.77;98865.38;5061664;28;20464;-70
2023/02/20 08:42:23;;;;;;;9.50;5.20;;;8.10;83.00;;;8.00;70.75;98861.59;5038484;28;20501;-70
2023/02/20 08:44:50;;;;;;;5.40;4.50;;;8.10;82.90;;;7.96;71.26;98862.94;5055513;28;20525;-71
2023/02/20 08:47:19;;;;;;;6.17;4.80;;;8.20;82.70;;;8.01;70.89;98853.31;5048855;28;20511;-70
2023/02/20 08:49:48;;;;;;;9.50;5.37;;;8.20;82.40;;;8.21;70.55;98853.69;5046929;28;20569;-71
2023/02/20 08:52:15;;;;;;;8.50;4.93;;;8.30;82.40;;;8.23;70.45;98842.75;5065181;28;20834;-71
2023/02/20 08:54:45;;;;;;;7.03;4.87;;;8.40;82.20;;;8.31;70.58;98836.47;5039157;28;20462;-70
2023/02/20 08:57:14;;;;;;;7.07;4.63;;;8.50;82.10;;;8.26;70.68;98839.69;5041480;28;20455;-72
2023/02/20 08:59:41;;;;;;;11.67;5.80;;;8.50;81.90;;;8.37;70.19;98838.41;5046713;28;20467;-71
2023/02/20 09:02:16;;;;;;;8.10;4.67;;;8.60;82.00;;;8.36;70.26;98844.81;5034122;28;20468;-71
2023/02/20 09:04:44;;;;;;;6.43;4.73;;;8.60;82.10;;;8.45;69.59;98837.50;5053423;28;20497;-69
2023/02/20 09:07:13;;;;;;;7.93;4.93;;;8.60;81.70;;;8.23;69.78;98840.88;5038698;28;20475;-70
2023/02/20 09:09:40;;;;;;;3.83;3.47;;;8.60;81.30;;;8.25;69.02;98837.16;5040141;28;20464;-70
2023/02/20 09:12:09;;;;;;;5.07;4.03;;;8.60;81.10;;;8.57;69.04;98833.41;5037729;28;20462;-72
2023/02/20 09:14:38;;;;;;;5.40;3.87;;;8.70;81.30;;;8.55;68.25;98827.34;5046502;28;20467;-72
2023/02/20 09:17:06;;;;;;;5.90;4.20;;;8.80;80.50;;;8.76;67.49;98831.19;5041159;28;20455;-71
2023/02/20 09:19:33;;;;;;;8.23;3.50;;;8.90;80.60;;;8.68;67.46;98828.59;5053257;28;21407;-71
2023/02/20 09:22:01;;;;;;;6.00;3.63;;;9.00;80.00;;;8.88;66.91;98828.91;5054446;28;20516;-71
2023/02/20 09:24:32;;;;;;;4.80;3.67;;;9.00;79.90;;;9.01;66.37;98818.28;5043915;28;20472;-71
2023/02/20 09:27:00;;;;;;;7.40;4.10;;;9.10;79.90;;;9.16;65.43;98815.59;5042860;28;20551;-71
2023/02/20 09:29:28;;;;;;;5.27;3.03;;;9.30;79.40;;;8.61;65.55;98756.56;5034370;28;20463;-70
2023/02/20 09:31:56;;;;;;;7.03;3.60;;;9.30;78.50;;;8.97;65.12;98819.69;5042850;28;20476;-71
2023/02/20 09:34:24;;;;;;;6.37;3.50;;;9.30;78.20;;;9.10;65.38;98813.66;5069368;28;20522;-72
2023/02/20 09:36:52;;;;;;;3.67;3.37;;;9.40;78.10;;;9.16;64.76;98817.44;5050604;28;20483;-70
2023/02/20 09:39:19;;;;;;;4.00;2.70;;;9.40;78.50;;;8.93;66.58;98818.41;5042106;28;20542;-70
2023/02/20 09:42:05;;;;;;;6.13;3.50;;;9.30;78.30;;;9.02;65.88;98784.94;5044957;28;20913;-71
2023/02/20 09:44:42;;;;;;;8.90;3.53;;;9.40;78.40;;;9.26;65.51;98795.63;5044957;28;20449;-71
2023/02/20 09:47:41;;;;;;;4.27;2.90;;;9.60;78.20;;;9.38;64.17;98795.97;5045555;28;20991;-70
2023/02/20 09:50:15;;;;;;;7.57;3.50;;;9.70;77.80;;;9.51;63.82;98788.03;5042392;28;20938;-70
2023/02/20 09:52:55;;;;;;;4.03;3.20;;;9.70;77.60;;;9.34;64.69;98771.22;5043325;28;20517;-70
2023/02/20 09:55:24;;;;;;;10.57;4.23;;;9.80;77.80;;;9.38;64.04;98760.91;5061878;28;20998;-70
2023/02/20 09:57:55;;;;;;;4.80;3.10;;;9.70;77.30;;;9.71;64.14;98773.94;5055636;28;20791;-71
2023/02/20 10:00:30;;;;;;;4.97;3.50;;;9.90;77.20;;;9.89;61.44;98766.22;5040498;28;20461;-71
2023/02/20 10:03:16;;;;;;;3.90;2.80;;;10.10;75.30;;;9.70;62.21;98769.56;5041451;28;20480;-70
2023/02/20 10:05:45;;;;;;;2.70;2.37;;;10.10;74.60;;;10.00;61.57;98766.75;5063440;28;20944;-71
2023/02/20 10:08:21;;;;;;;3.37;3.07;;;10.20;74.60;;;9.99;61.12;98752.41;5054099;28;20478;-69
2023/02/20 10:10:51;;;;;;;3.10;2.80;;;10.30;74.30;;;10.25;60.42;98761.75;5054670;28;20457;-69
2023/02/20 10:13:48;;;;;;;5.50;3.40;;;10.30;74.30;;;10.53;60.11;98770.94;5062337;28;20448;-70
2023/02/20 10:16:33;;;;;;;4.00;2.87;;;10.60;74.20;;;10.20;59.85;98759.63;5041804;28;20456;-70
2023/02/20 10:19:17;;;;;;;6.90;3.33;;;10.50;72.80;;;10.09;59.74;98706.19;5058638;28;20794;-70
2023/02/20 10:21:56;;;;;;;6.23;3.13;;;10.60;73.10;;;10.38;59.76;98728.59;5045179;28;20503;-73
2023/02/20 10:24:46;;;;;;;4.97;2.77;;;10.70;73.00;;;10.52;59.81;98744.94;5046534;28;20457;-71
2023/02/20 10:27:25;;;;;;;3.20;2.80;;;10.70;73.10;;;10.68;58.96;98741.94;5053977;28;21025;-71
2023/02/20 10:29:54;;;;;;;5.80;2.47;;;10.80;72.40;;;11.09;58.52;98744.88;5045589;28;20451;-71
2023/02/20 10:32:29;;;;;;;4.30;2.23;;;11.10;72.40;;;11.05;57.75;98737.16;5045951;28;20464;-71
2023/02/20 10:35:05;;;;;;;3.30;2.40;;;11.30;71.50;;;11.19;56.40;98729.09;5046413;28;20715;-71
2023/02/20 10:37:38;;;;;;;2.30;2.10;;;11.40;70.40;;;10.71;56.50;98684.81;5066254;28;20481;-72
2023/02/20 10:40:18;;;;;;;3.03;2.40;;;11.30;69.40;;;10.97;57.48;98737.31;5056611;28;21500;-71
2023/02/20 10:42:54;;;;;;;4.60;2.37;;;11.30;70.00;;;10.86;56.73;98727.09;5043201;28;20466;-70
2023/02/20 10:45:32;;;;;;;6.40;3.17;;;11.20;69.10;;;10.95;57.49;98717.75;5035293;28;21089;-72
2023/02/20 10:48:05;;;;;;;10.10;3.07;;;11.20;69.90;;;11.13;57.40;98719.06;5037254;28;20519;-72
2023/02/20 10:50:40;;;;;;;5.20;2.13;;;11.30;70.00;;;11.25;57.72;98719.34;5040010;28;20511;-71
2023/02/20 10:53:19;;;;;;;3.53;2.30;;;11.40;70.40;;;11.17;57.80;98721.19;5042512;28;20460;-71
2023/02/20 10:55:52;;;;;;;5.83;3.00;;;11.40;70.20;;;11.22;57.55;98714.31;5049509;28;20943;-72
2023/02/20 10:58:27;;;;;;;4.23;2.20;;;11.40;70.00;;;11.24;57.68;98718.50;5059413;28;20456;-73